createdAt,value
2022-09-05T00:01:58.265Z,20.10
2022-09-05T00:04:37.506Z,20.10
2022-09-05T00:07:34.336Z,20.20
2022-09-05T00:10:37.350Z,20.10
2022-09-05T00:13:11.302Z,20.10
2022-09-05T00:16:14.712Z,20.10
2022-09-05T00:24:17.447Z,20.10
2022-09-05T00:24:27.139Z,20.10
2022-09-05T00:25:32.646Z,20.10
2022-09-05T00:28:26.851Z,20.10
2022-09-05T00:31:54.712Z,20.00
2022-09-05T00:34:09.651Z,20.00
2022-09-05T00:36:54.844Z,20.00
2022-09-05T00:39:36.089Z,19.90
2022-09-05T00:42:17.950Z,19.90
2022-09-05T00:45:03.337Z,19.90
2022-09-05T00:47:54.323Z,19.80
2022-09-05T00:50:29.833Z,19.80
2022-09-05T00:53:21.763Z,19.80
2022-09-05T00:56:14.905Z,19.70
2022-09-05T00:59:03.904Z,19.70
2022-09-05T01:01:45.579Z,19.70
2022-09-05T01:04:49.362Z,19.60
2022-09-05T01:07:46.826Z,19.60
2022-09-05T01:10:44.224Z,19.50
2022-09-05T01:13:28.238Z,19.50
2022-09-05T01:16:13.690Z,19.40
2022-09-05T01:19:01.808Z,19.40
2022-09-05T01:21:59.778Z,19.30
2022-09-05T01:25:06.773Z,19.30
2022-09-05T01:29:13.246Z,19.30
2022-09-05T01:31:02.491Z,19.20
2022-09-05T01:33:58.659Z,19.20
2022-09-05T01:36:44.210Z,19.20
2022-09-05T01:40:11.819Z,19.10
2022-09-05T01:42:32.028Z,19.10
2022-09-05T01:45:31.255Z,19.00
2022-09-05T01:48:21.341Z,19.00
2022-09-05T01:51:28.313Z,19.00
2022-09-05T01:54:26.430Z,18.90
2022-09-05T01:57:08.178Z,18.90
2022-09-05T01:59:45.284Z,18.90
2022-09-05T02:02:22.843Z,18.80
2022-09-05T02:05:08.902Z,18.80
2022-09-05T02:07:44.448Z,18.80
2022-09-05T02:10:40.262Z,18.70
2022-09-05T02:13:42.452Z,18.70
2022-09-05T02:16:26.195Z,18.60
2022-09-05T02:19:04.757Z,18.60
2022-09-05T02:21:56.451Z,18.60
2022-09-05T02:24:37.515Z,18.50
2022-09-05T02:27:10.942Z,18.50
2022-09-05T02:29:57.660Z,18.50
2022-09-05T02:32:46.383Z,18.40
2022-09-05T02:35:35.386Z,18.40
2022-09-05T02:40:22.023Z,18.40
2022-09-05T02:45:07.655Z,18.40
2022-09-05T02:45:10.558Z,18.30
2022-09-05T02:47:07.871Z,18.30
2022-09-05T02:54:12.866Z,18.20
2022-09-05T02:57:29.429Z,18.20
2022-09-05T02:57:35.917Z,18.20
2022-09-05T02:59:35.742Z,18.10
2022-09-05T03:02:30.678Z,18.10
2022-09-05T03:05:10.474Z,18.10
2022-09-05T03:07:46.014Z,18.00
2022-09-05T03:10:47.058Z,18.00
2022-09-05T03:13:54.024Z,18.00
2022-09-05T03:16:49.540Z,17.90
2022-09-05T03:19:19.505Z,17.90
2022-09-05T03:22:24.096Z,17.90
2022-09-05T03:25:16.350Z,17.80
2022-09-05T03:28:11.089Z,17.90
2022-09-05T03:30:44.284Z,17.80
2022-09-05T03:33:26.477Z,17.80
2022-09-05T03:36:38.678Z,17.70
2022-09-05T03:39:26.697Z,17.70
2022-09-05T03:42:30.453Z,17.70
2022-09-05T03:45:11.105Z,17.70
2022-09-05T03:48:05.031Z,17.70
2022-09-05T03:57:06.347Z,17.70
2022-09-05T03:57:12.203Z,17.60
2022-09-05T03:57:32.255Z,17.60
2022-09-05T04:00:21.526Z,17.60
2022-09-05T04:08:08.564Z,17.60
2022-09-05T04:08:16.281Z,17.60
2022-09-05T04:08:47.555Z,17.60
2022-09-05T04:11:37.566Z,17.60
2022-09-05T04:14:33.836Z,17.50
2022-09-05T04:17:23.033Z,17.50
2022-09-05T04:20:00.182Z,17.50
2022-09-05T04:22:58.329Z,17.50
2022-09-05T04:25:49.635Z,17.40
2022-09-05T04:29:05.346Z,17.40
2022-09-05T04:31:43.160Z,17.30
2022-09-05T04:34:40.954Z,17.30
2022-09-05T04:37:09.866Z,17.30
2022-09-05T04:39:37.376Z,17.30
2022-09-05T04:42:24.472Z,17.30
2022-09-05T04:44:58.569Z,17.20
2022-09-05T04:47:35.561Z,17.20
2022-09-05T04:50:10.865Z,17.20
2022-09-05T04:52:58.509Z,17.20
2022-09-05T04:55:28.769Z,17.20
2022-09-05T04:57:58.614Z,17.20
2022-09-05T05:05:58.863Z,17.20
2022-09-05T05:06:09.426Z,17.10
2022-09-05T05:06:45.559Z,17.10
2022-09-05T05:09:23.727Z,17.10
2022-09-05T05:17:55.060Z,17.10
2022-09-05T05:18:07.634Z,17.10
2022-09-05T05:18:37.664Z,17.10
2022-09-05T05:20:54.927Z,17.10
2022-09-05T05:23:41.901Z,17.10
2022-09-05T05:26:29.701Z,17.10
2022-09-05T05:29:09.862Z,17.10
2022-09-05T05:31:46.144Z,17.10
2022-09-05T05:34:23.879Z,17.10
2022-09-05T05:37:18.167Z,17.10
2022-09-05T05:39:50.121Z,17.10
2022-09-05T05:42:24.083Z,17.10
2022-09-05T05:44:57.459Z,17.10
2022-09-05T05:47:31.619Z,17.20
2022-09-05T05:50:04.449Z,17.20
2022-09-05T05:52:47.371Z,17.20
2022-09-05T05:55:51.798Z,17.20
2022-09-05T05:58:57.130Z,17.30
2022-09-05T06:02:07.561Z,17.30
2022-09-05T06:05:13.533Z,17.30
2022-09-05T06:10:47.568Z,17.30
2022-09-05T06:14:59.032Z,17.40
2022-09-05T06:15:00.625Z,17.40
2022-09-05T06:17:48.242Z,17.50
2022-09-05T06:22:07.166Z,17.50
2022-09-05T06:23:50.089Z,17.50
2022-09-05T06:26:41.071Z,17.60
2022-09-05T06:29:13.910Z,17.60
2022-09-05T06:32:01.044Z,17.60
2022-09-05T06:34:51.212Z,17.60
2022-09-05T06:37:42.612Z,17.60
2022-09-05T06:40:23.391Z,17.60
2022-09-05T06:43:27.558Z,17.70
2022-09-05T06:46:09.323Z,17.70
2022-09-05T06:49:28.154Z,17.70
2022-09-05T06:52:29.465Z,17.70
2022-09-05T06:55:14.752Z,17.80
2022-09-05T06:58:27.305Z,17.90
2022-09-05T07:00:58.790Z,17.90
2022-09-05T07:03:46.402Z,17.90
2022-09-05T07:06:40.043Z,18.00
2022-09-05T07:09:43.136Z,18.10
2022-09-05T07:12:34.771Z,18.20
2022-09-05T07:15:22.777Z,18.20
2022-09-05T07:18:11.273Z,18.20
2022-09-05T07:21:16.608Z,18.30
2022-09-05T07:24:08.787Z,18.40
2022-09-05T07:26:54.097Z,18.40
2022-09-05T07:30:01.250Z,18.50
2022-09-05T07:32:31.675Z,18.60
2022-09-05T07:35:03.061Z,18.60
2022-09-05T07:37:41.365Z,18.70
2022-09-05T07:40:25.830Z,18.80
2022-09-05T07:43:10.749Z,18.90
2022-09-05T07:45:56.193Z,18.90
2022-09-05T07:48:34.846Z,19.10
2022-09-05T07:56:46.204Z,19.20
2022-09-05T07:56:53.303Z,19.20
2022-09-05T07:59:40.545Z,19.50
2022-09-05T08:02:11.769Z,19.60
2022-09-05T08:04:41.676Z,19.70
2022-09-05T08:07:49.137Z,19.80
2022-09-05T08:10:10.863Z,19.90
2022-09-05T08:13:22.495Z,20.10
2022-09-05T08:16:10.688Z,20.20
2022-09-05T08:18:52.947Z,20.40
2022-09-05T08:21:50.024Z,20.50
2022-09-05T08:24:36.686Z,20.60
2022-09-05T08:27:03.524Z,20.80
2022-09-05T08:29:36.455Z,20.90
2022-09-05T08:32:08.580Z,21.10
2022-09-05T08:34:45.785Z,21.30
2022-09-05T08:37:22.820Z,21.80
2022-09-05T08:40:10.191Z,22.60
2022-09-05T08:44:52.432Z,23.80
2022-09-05T08:46:39.460Z,25.30
2022-09-05T08:49:36.972Z,27.00
2022-09-05T08:52:25.904Z,29.20
2022-09-05T08:55:10.621Z,31.00
2022-09-05T08:57:46.889Z,32.50
2022-09-05T09:00:24.346Z,33.60
2022-09-05T09:03:06.811Z,34.00
2022-09-05T09:06:15.733Z,34.10
2022-09-05T09:08:51.485Z,33.90
2022-09-05T09:11:34.402Z,33.80
2022-09-05T09:14:30.464Z,34.00
2022-09-05T09:17:09.746Z,34.60
2022-09-05T09:19:48.406Z,35.40
2022-09-05T09:22:27.713Z,36.10
2022-09-05T09:25:23.652Z,36.60
2022-09-05T09:28:50.012Z,37.20
2022-09-05T09:31:26.937Z,37.80
2022-09-05T09:34:08.557Z,38.40
2022-09-05T09:36:49.316Z,39.00
2022-09-05T09:39:52.942Z,39.70
2022-09-05T09:42:32.417Z,40.50
2022-09-05T09:45:28.506Z,41.30
2022-09-05T09:48:23.361Z,42.10
2022-09-05T09:51:15.398Z,42.80
2022-09-05T09:53:49.114Z,43.60
2022-09-05T09:56:19.410Z,44.20
2022-09-05T09:59:23.703Z,44.90
2022-09-05T10:04:31.070Z,45.60
2022-09-05T10:10:52.403Z,46.30
2022-09-05T10:10:56.120Z,46.00
2022-09-05T10:14:48.194Z,47.00
2022-09-05T10:17:39.950Z,47.30
2022-09-05T10:20:36.006Z,47.50
2022-09-05T10:23:26.908Z,47.40
2022-09-05T10:26:38.466Z,47.00
2022-09-05T10:29:34.966Z,46.80
2022-09-05T10:35:11.722Z,46.60
2022-09-05T10:35:15.024Z,46.70
2022-09-05T10:37:51.455Z,46.80
2022-09-05T10:40:23.581Z,46.80
2022-09-05T10:43:12.652Z,46.80
2022-09-05T10:45:57.549Z,46.90
2022-09-05T10:48:44.670Z,47.10
2022-09-05T10:51:38.108Z,47.20
2022-09-05T10:54:14.385Z,47.20
2022-09-05T10:56:50.289Z,47.10
2022-09-05T11:02:04.710Z,47.10
2022-09-05T11:02:33.593Z,47.00
2022-09-05T11:05:26.637Z,46.60
2022-09-05T11:08:16.787Z,46.00
2022-09-05T11:11:03.246Z,45.50
2022-09-05T11:13:43.381Z,45.10
2022-09-05T11:16:28.408Z,44.50
2022-09-05T11:19:03.647Z,44.00
2022-09-05T11:21:36.219Z,43.60
2022-09-05T11:24:27.623Z,43.50
2022-09-05T11:27:24.878Z,43.70
2022-09-05T11:29:51.743Z,43.80
2022-09-05T11:34:22.707Z,43.80
2022-09-05T11:40:04.815Z,43.30
2022-09-05T11:40:08.557Z,43.70
2022-09-05T11:41:51.933Z,43.10
2022-09-05T11:44:30.068Z,43.20
2022-09-05T11:47:33.164Z,43.10
2022-09-05T11:50:25.128Z,43.00
2022-09-05T11:53:17.701Z,42.80
2022-09-05T11:56:08.318Z,42.80
2022-09-05T11:58:57.546Z,42.80
2022-09-05T12:01:50.698Z,43.10
2022-09-05T12:04:38.727Z,43.40
2022-09-05T12:07:32.227Z,43.70
2022-09-05T12:10:47.790Z,43.90
2022-09-05T12:13:34.173Z,44.10
2022-09-05T12:16:08.553Z,44.20
2022-09-05T12:18:58.037Z,44.10
2022-09-05T12:26:02.875Z,43.90
2022-09-05T12:29:25.873Z,43.80
2022-09-05T12:32:30.561Z,43.50
2022-09-05T12:36:11.323Z,42.90
2022-09-05T12:40:55.637Z,42.00
2022-09-05T12:41:41.391Z,43.90
2022-09-05T12:41:44.424Z,41.50
2022-09-05T12:44:42.286Z,41.00
2022-09-05T12:47:17.084Z,40.80
2022-09-05T12:50:15.309Z,40.80
2022-09-05T12:53:01.821Z,40.90
2022-09-05T12:55:40.678Z,41.20
2022-09-05T13:02:58.747Z,41.40
2022-09-05T13:03:06.200Z,41.60
2022-09-05T13:04:20.183Z,41.80
2022-09-05T13:06:57.518Z,42.00
2022-09-05T13:11:11.483Z,42.30
2022-09-05T13:14:58.833Z,42.40
2022-09-05T13:15:35.993Z,42.50
2022-09-05T13:18:15.289Z,42.50
2022-09-05T13:21:02.193Z,42.50
2022-09-05T13:23:50.589Z,42.50
2022-09-05T13:26:33.867Z,42.60
2022-09-05T13:29:18.383Z,42.70
2022-09-05T13:37:58.358Z,42.70
2022-09-05T13:38:07.303Z,42.70
2022-09-05T13:38:10.025Z,42.70
2022-09-05T13:40:48.848Z,42.70
2022-09-05T13:43:22.625Z,42.70
2022-09-05T13:46:58.234Z,42.70
2022-09-05T13:49:28.488Z,42.60
2022-09-05T13:52:15.270Z,42.40
2022-09-05T13:55:00.552Z,42.20
2022-09-05T13:57:48.700Z,41.80
2022-09-05T14:00:27.882Z,41.60
2022-09-05T14:03:39.012Z,41.50
2022-09-05T14:06:48.759Z,41.50
2022-09-05T14:09:39.684Z,41.50
2022-09-05T14:12:24.397Z,41.50
2022-09-05T14:15:15.902Z,41.60
2022-09-05T14:18:17.795Z,41.70
2022-09-05T14:21:17.715Z,41.80
2022-09-05T14:23:56.338Z,41.90
2022-09-05T14:26:49.101Z,42.00
2022-09-05T14:29:25.042Z,41.90
2022-09-05T14:37:35.482Z,41.90
2022-09-05T14:37:45.202Z,41.80
2022-09-05T14:38:50.976Z,41.70
2022-09-05T14:41:23.590Z,41.50
2022-09-05T14:44:08.855Z,41.50
2022-09-05T14:46:54.425Z,41.30
2022-09-05T14:49:42.620Z,41.10
2022-09-05T14:52:19.677Z,40.80
2022-09-05T15:02:43.342Z,40.50
2022-09-05T15:02:46.101Z,40.60
2022-09-05T15:06:39.089Z,40.30
2022-09-05T15:12:16.942Z,40.20
2022-09-05T15:12:27.733Z,40.20
2022-09-05T15:15:13.995Z,40.20
2022-09-05T15:17:46.814Z,40.10
2022-09-05T15:20:31.808Z,40.10
2022-09-05T15:22:59.238Z,39.90
2022-09-05T15:25:59.950Z,39.90
2022-09-05T15:28:39.837Z,39.90
2022-09-05T15:31:27.860Z,39.90
2022-09-05T15:33:54.966Z,39.90
2022-09-05T15:36:33.917Z,39.90
2022-09-05T15:39:31.886Z,39.90
2022-09-05T15:42:21.370Z,39.70
2022-09-05T15:45:08.765Z,39.50
2022-09-05T15:47:38.514Z,39.30
2022-09-05T15:50:21.891Z,39.00
2022-09-05T15:52:55.036Z,38.70
2022-09-05T15:55:24.621Z,38.40
2022-09-05T15:58:01.637Z,38.20
2022-09-05T16:00:51.398Z,38.00
2022-09-05T16:06:34.985Z,37.90
2022-09-05T16:10:50.571Z,37.80
2022-09-05T16:10:58.297Z,37.70
2022-09-05T16:12:14.447Z,37.50
2022-09-05T16:14:45.215Z,37.30
2022-09-05T16:23:17.261Z,37.20
2022-09-05T16:23:28.261Z,37.00
2022-09-05T16:23:45.518Z,36.90
2022-09-05T16:26:25.654Z,36.80
2022-09-05T16:29:30.875Z,36.80
2022-09-05T16:32:02.058Z,36.80
2022-09-05T16:35:03.366Z,36.80
2022-09-05T16:37:41.424Z,36.70
2022-09-05T16:40:32.896Z,36.70
2022-09-05T16:43:06.854Z,36.60
2022-09-05T16:45:47.069Z,36.60
2022-09-05T16:48:35.250Z,36.40
2022-09-05T16:51:24.707Z,36.30
2022-09-05T16:54:11.801Z,36.20
2022-09-05T16:56:49.383Z,36.00
2022-09-05T16:59:21.441Z,35.90
2022-09-05T17:02:06.624Z,35.70
2022-09-05T17:05:03.962Z,35.50
2022-09-05T17:08:02.889Z,35.30
2022-09-05T17:10:58.222Z,35.00
2022-09-05T17:13:53.386Z,34.90
2022-09-05T17:16:34.544Z,34.60
2022-09-05T17:19:02.267Z,34.50
2022-09-05T17:24:13.933Z,34.40
2022-09-05T17:29:20.049Z,34.20
2022-09-05T17:29:36.096Z,34.00
2022-09-05T17:32:58.118Z,33.60
2022-09-05T17:35:47.603Z,33.40
2022-09-05T17:38:36.307Z,33.20
2022-09-05T17:41:21.460Z,33.00
2022-09-05T17:43:59.745Z,32.80
2022-09-05T17:46:29.669Z,32.60
2022-09-05T17:49:18.146Z,32.40
2022-09-05T17:51:52.118Z,32.20
2022-09-05T17:54:30.742Z,32.00
2022-09-05T17:57:29.440Z,31.80
2022-09-05T18:00:11.142Z,31.70
2022-09-05T18:02:58.461Z,31.50
2022-09-05T18:05:57.401Z,31.40
2022-09-05T18:08:45.191Z,31.20
2022-09-05T18:11:17.984Z,31.00
2022-09-05T18:14:02.028Z,30.90
2022-09-05T18:16:48.384Z,30.70
2022-09-05T18:19:43.966Z,30.60
2022-09-05T18:22:28.202Z,30.40
2022-09-05T18:25:28.374Z,30.30
2022-09-05T18:28:11.005Z,30.10
2022-09-05T18:30:39.181Z,30.00
2022-09-05T18:33:53.323Z,29.80
2022-09-05T18:35:57.713Z,29.70
2022-09-05T18:38:51.397Z,29.60
2022-09-05T18:41:22.801Z,29.50
2022-09-05T18:44:13.870Z,29.40
2022-09-05T18:46:53.796Z,29.20
2022-09-05T18:50:23.786Z,29.10
2022-09-05T18:52:31.125Z,29.00
2022-09-05T18:55:52.646Z,28.80
2022-09-05T18:58:02.989Z,28.70
2022-09-05T19:00:44.613Z,28.60
2022-09-05T19:03:35.326Z,28.50
2022-09-05T19:06:36.071Z,28.40
2022-09-05T19:09:07.498Z,28.30
2022-09-05T19:12:32.039Z,28.10
2022-09-05T19:14:53.667Z,28.00
2022-09-05T19:17:27.500Z,27.90
2022-09-05T19:20:32.927Z,27.70
2022-09-05T19:23:13.286Z,27.60
2022-09-05T19:25:44.822Z,27.40
2022-09-05T19:33:28.428Z,27.30
2022-09-05T19:36:51.771Z,27.10
2022-09-05T19:36:51.851Z,27.20
2022-09-05T19:44:13.827Z,26.80
2022-09-05T19:47:36.034Z,26.60
2022-09-05T19:47:39.464Z,26.70
2022-09-05T19:51:16.495Z,26.40
2022-09-05T19:54:04.469Z,26.20
2022-09-05T19:56:35.807Z,26.10
2022-09-05T19:59:14.405Z,26.00
2022-09-05T20:01:44.309Z,25.90
2022-09-05T20:04:16.455Z,25.80
2022-09-05T20:06:43.882Z,25.70
2022-09-05T20:09:16.827Z,25.60
2022-09-05T20:11:52.536Z,25.50
2022-09-05T20:14:30.803Z,25.40
2022-09-05T20:17:16.945Z,25.30
2022-09-05T20:19:44.106Z,25.20
2022-09-05T20:22:47.365Z,25.10
2022-09-05T20:25:19.908Z,25.00
2022-09-05T20:28:06.999Z,24.90
2022-09-05T20:30:40.071Z,24.80
2022-09-05T20:33:15.781Z,24.80
2022-09-05T20:42:33.527Z,24.60
2022-09-05T20:43:24.923Z,24.50
2022-09-05T20:43:30.781Z,24.40
2022-09-05T20:44:25.048Z,24.40
2022-09-05T20:51:46.091Z,24.30
2022-09-05T20:54:13.351Z,24.20
2022-09-05T20:54:16.439Z,24.10
2022-09-05T20:55:41.260Z,24.00
2022-09-05T20:58:24.716Z,24.00
2022-09-05T21:01:21.599Z,23.90
2022-09-05T21:03:57.412Z,23.80
2022-09-05T21:06:34.466Z,23.70
2022-09-05T21:09:26.101Z,23.60
2022-09-05T21:11:58.553Z,23.50
2022-09-05T21:14:28.154Z,23.50
2022-09-05T21:17:01.508Z,23.40
2022-09-05T21:19:42.273Z,23.30
2022-09-05T21:22:16.909Z,23.20
2022-09-05T21:24:46.562Z,23.20
2022-09-05T21:27:22.150Z,23.10
2022-09-05T21:29:57.824Z,23.00
2022-09-05T21:32:38.327Z,23.00
2022-09-05T21:35:34.776Z,22.90
2022-09-05T21:38:01.455Z,22.90
2022-09-05T21:40:28.398Z,22.80
2022-09-05T21:47:34.175Z,22.80
2022-09-05T21:47:38.390Z,22.80
2022-09-05T21:48:36.051Z,22.70
2022-09-05T21:51:08.261Z,22.60
2022-09-05T21:58:44.253Z,22.50
2022-09-05T21:59:18.876Z,22.50
2022-09-05T21:59:50.020Z,22.50
2022-09-05T22:02:17.710Z,22.40
2022-09-05T22:04:46.093Z,22.40
2022-09-05T22:07:32.289Z,22.40
2022-09-05T22:10:04.918Z,22.30
2022-09-05T22:12:38.482Z,22.30
2022-09-05T22:15:27.329Z,22.20
2022-09-05T22:18:16.744Z,22.20
2022-09-05T22:20:53.540Z,22.20
2022-09-05T22:23:36.648Z,22.20
2022-09-05T22:26:06.609Z,22.20
2022-09-05T22:28:35.940Z,22.20
2022-09-05T22:31:07.209Z,22.10
2022-09-05T22:33:35.387Z,22.10
2022-09-05T22:36:02.389Z,22.00
2022-09-05T22:38:29.284Z,22.00
2022-09-05T22:40:57.305Z,22.00
2022-09-05T22:43:25.245Z,21.90
2022-09-05T22:45:59.146Z,21.90
2022-09-05T22:48:27.896Z,21.90
2022-09-05T22:50:54.757Z,21.80
2022-09-05T22:53:21.889Z,21.80
2022-09-05T22:55:56.804Z,21.70
2022-09-05T22:58:23.949Z,21.70
2022-09-05T23:00:50.640Z,21.70
2022-09-05T23:03:17.629Z,21.60
2022-09-05T23:05:44.425Z,21.60
2022-09-05T23:08:11.681Z,21.60
2022-09-05T23:10:38.973Z,21.60
2022-09-05T23:13:07.965Z,21.50
2022-09-05T23:15:35.824Z,21.50
2022-09-05T23:18:04.181Z,21.50
2022-09-05T23:20:32.836Z,21.40
2022-09-05T23:23:03.605Z,21.40
2022-09-05T23:25:30.633Z,21.40
2022-09-05T23:27:57.695Z,21.40
2022-09-05T23:30:24.415Z,21.30
2022-09-05T23:32:52.105Z,21.30
2022-09-05T23:35:19.541Z,21.30
2022-09-05T23:37:54.049Z,21.30
2022-09-05T23:40:23.056Z,21.20
2022-09-05T23:42:57.769Z,21.20
2022-09-05T23:45:25.940Z,21.20
2022-09-05T23:47:52.680Z,21.20
2022-09-05T23:50:20.897Z,21.20
2022-09-05T23:52:48.174Z,21.10
2022-09-05T23:55:17.625Z,21.10
2022-09-05T23:57:44.505Z,21.10
